Time;durP1;ratioP1;P1;durP2;ratioP2;P2;SDS_P1;SDS_P2;PMS_P1;PMS_P2;Temp;Humidity;BMP_temperature;BMP_pressure;BME280_temperature;BME280_humidity;BME280_pressure;Samples;Min_cycle;Max_cycle;Signal;HPM_P1;HPM_P2
2022/10/10 00:01:55;;;;;;;3.60;1.40;;;;;;;6.50;85.02;99827.83;102007;1301;75448;-18
2022/10/10 00:04:22;;;;;;;2.30;0.90;;;;;;;6.36;85.36;99827.88;102124;1301;77456;-17
2022/10/10 00:06:49;;;;;;;2.30;1.20;;;;;;;6.16;86.00;99834.20;101996;1301;75081;-17
2022/10/10 00:09:16;;;;;;;2.20;1.00;;;;;;;6.01;86.63;99832.86;102055;1300;64300;-18
2022/10/10 00:11:43;;;;;;;1.50;0.90;;;;;;;6.26;86.60;99834.60;102090;1294;61510;-18
2022/10/10 00:14:10;;;;;;;1.90;1.20;;;;;;;6.66;84.63;99836.12;102118;1301;74056;-18
2022/10/10 00:16:37;;;;;;;5.10;1.50;;;;;;;6.53;84.80;99834.91;102078;1302;76522;-17
2022/10/10 00:19:04;;;;;;;2.20;1.20;;;;;;;6.31;85.76;99830.52;102108;1301;74455;-18
2022/10/10 00:21:32;;;;;;;2.70;1.30;;;;;;;6.04;87.14;99834.97;102059;1295;62835;-18
2022/10/10 00:23:59;;;;;;;1.00;0.80;;;;;;;5.91;87.85;99837.12;102061;1300;61793;-18
2022/10/10 00:26:26;;;;;;;1.70;1.10;;;;;;;6.27;86.81;99837.42;102092;1301;76342;-17
2022/10/10 00:28:53;;;;;;;1.80;1.10;;;;;;;6.48;85.37;99837.94;102076;1301;76540;-17
2022/10/10 00:31:20;;;;;;;3.80;1.00;;;;;;;6.41;85.52;99840.02;102042;1295;75189;-18
2022/10/10 00:33:47;;;;;;;3.00;1.60;;;;;;;6.21;85.94;99842.60;102067;1295;61546;-18
2022/10/10 00:36:14;;;;;;;1.90;1.50;;;;;;;6.00;86.87;99847.39;102117;1294;61849;-17
2022/10/10 00:38:42;;;;;;;2.50;1.00;;;;;;;5.86;87.15;99844.95;102090;1294;76325;-18
2022/10/10 00:41:09;;;;;;;3.30;1.10;;;;;;;6.17;86.70;99845.37;102107;1301;76731;-18
2022/10/10 00:43:36;;;;;;;1.30;0.80;;;;;;;6.46;85.14;99839.92;102059;1294;75214;-18
2022/10/10 00:46:03;;;;;;;6.50;1.20;;;;;;;6.46;84.58;99837.88;102098;1294;62437;-18
2022/10/10 00:48:36;;;;;;;2.00;1.20;;;;;;;6.27;84.84;99838.30;102123;1302;62533;-18
2022/10/10 00:51:14;;;;;;;2.30;1.40;;;;;;;5.95;86.32;99843.17;102038;1296;76259;-18
2022/10/10 00:53:49;;;;;;;2.30;0.90;;;;;;;5.79;87.33;99847.17;101833;1306;75626;-18
2022/10/10 00:56:20;;;;;;;1.80;0.90;;;;;;;6.13;86.20;99844.36;101856;1302;73936;-18
2022/10/10 00:58:49;;;;;;;3.00;1.20;;;;;;;6.44;84.72;99844.36;101836;1302;61051;-18
2022/10/10 01:01:16;;;;;;;1.50;1.30;;;;;;;6.36;84.23;99846.47;101833;1306;63134;-18
2022/10/10 01:03:43;;;;;;;2.40;1.10;;;;;;;6.11;84.94;99847.40;101855;1304;76387;-18
2022/10/10 01:06:10;;;;;;;2.50;1.40;;;;;;;5.86;86.15;99850.48;102068;1301;75818;-18
2022/10/10 01:08:37;;;;;;;2.40;1.20;;;;;;;5.62;87.31;99852.81;102006;1304;75239;-17
2022/10/10 01:11:33;;;;;;;4.40;1.00;;;;;;;5.90;86.83;99850.48;101896;1304;62942;-17
2022/10/10 01:14:35;;;;;;;3.40;1.20;;;;;;;6.34;84.66;99848.29;102073;1294;61599;-18
2022/10/10 01:17:09;;;;;;;3.40;1.20;;;;;;;6.18;84.64;99849.30;101821;1298;76759;-18
2022/10/10 01:19:48;;;;;;;3.00;1.40;;;;;;;5.84;85.75;99850.40;101960;1301;76643;-17
2022/10/10 01:22:20;;;;;;;4.00;1.80;;;;;;;5.62;86.93;99852.33;102010;1296;75049;-18
2022/10/10 01:24:54;;;;;;;1.00;0.70;;;;;;;5.42;88.29;99851.89;102031;1297;64358;-17
2022/10/10 01:27:28;;;;;;;3.00;0.90;;;;;;;5.86;86.99;99850.81;102009;1304;62776;-17
2022/10/10 01:30:24;;;;;;;3.80;1.40;;;;;;;6.17;84.95;99852.27;101879;1296;76450;-18
2022/10/10 01:33:03;;;;;;;3.80;1.40;;;;;;;6.00;84.96;99852.06;101876;1293;75574;-18
2022/10/10 01:35:54;;;;;;;2.70;1.30;;;;;;;5.80;85.50;99855.62;101924;1294;74042;-17
2022/10/10 01:38:37;;;;;;;7.80;1.90;;;;;;;5.41;87.46;99852.98;101788;1294;61823;-17
2022/10/10 01:41:08;;;;;;;2.30;1.00;;;;;;;5.27;88.22;99859.33;102012;1308;62554;-18
2022/10/10 01:43:35;;;;;;;8.80;1.70;;;;;;;5.71;87.32;99860.33;102086;1295;76357;-17
2022/10/10 01:46:16;;;;;;;2.30;0.90;;;;;;;5.88;86.35;99859.70;101800;1296;75756;-17
2022/10/10 01:48:45;;;;;;;4.10;1.20;;;;;;;5.79;86.09;99862.36;101826;1306;75171;-18
2022/10/10 01:51:21;;;;;;;3.20;1.40;;;;;;;5.56;86.74;99861.00;101910;1298;62615;-17
2022/10/10 01:54:01;;;;;;;3.70;1.20;;;;;;;5.27;88.41;99865.17;102045;1300;61848;-17
2022/10/10 01:56:39;;;;;;;1.90;1.30;;;;;;;5.50;88.11;99865.30;101835;1303;76276;-17
2022/10/10 01:59:33;;;;;;;2.60;1.30;;;;;;;5.87;86.13;99867.48;101805;1298;76846;-18
2022/10/10 02:02:50;;;;;;;4.20;1.50;;;;;;;5.71;86.24;99869.26;101824;1301;75200;-17
2022/10/10 02:05:40;;;;;;;3.80;1.70;;;;;;;5.39;87.31;99870.80;101432;1310;62015;-17
2022/10/10 02:08:07;;;;;;;1.20;1.10;;;;;;;5.16;89.00;99871.67;101350;1309;63126;-18
2022/10/10 02:10:40;;;;;;;1.90;1.10;;;;;;;5.51;88.36;99875.23;101804;1302;75168;-17
2022/10/10 02:13:07;;;;;;;1.50;1.10;;;;;;;5.79;86.27;99879.92;101935;1297;76869;-17
2022/10/10 02:15:38;;;;;;;3.30;1.90;;;;;;;5.62;86.81;99882.80;101884;1302;74218;-17
2022/10/10 02:18:05;;;;;;;2.00;1.40;;;;;;;5.43;87.25;99883.00;101883;1297;61676;-17
2022/10/10 02:20:32;;;;;;;2.40;1.40;;;;;;;5.21;88.29;99881.61;101951;1302;61549;-18
2022/10/10 02:22:59;;;;;;;3.30;1.40;;;;;;;5.08;88.90;99886.83;101946;1296;76263;-18
2022/10/10 02:25:28;;;;;;;2.40;1.10;;;;;;;5.46;88.09;99889.26;102165;1301;76804;-17
2022/10/10 02:28:06;;;;;;;3.30;1.40;;;;;;;5.75;86.26;99889.94;102074;1297;75221;-17
2022/10/10 02:30:34;;;;;;;3.50;1.40;;;;;;;5.73;85.53;99891.59;102020;1294;62651;-17
2022/10/10 02:33:02;;;;;;;2.50;1.80;;;;;;;5.40;87.18;99893.15;102169;1301;61811;-18
2022/10/10 02:35:31;;;;;;;7.40;2.00;;;;;;;5.16;88.63;99892.48;101842;1298;75294;-17
2022/10/10 02:37:58;;;;;;;1.50;0.90;;;;;;;5.07;89.43;99897.56;101882;1301;76816;-17
2022/10/10 02:40:27;;;;;;;2.30;1.10;;;;;;;5.50;87.82;99902.48;101934;1302;74090;-17
2022/10/10 02:42:55;;;;;;;1.30;1.00;;;;;;;5.75;86.47;99902.86;101819;1306;61577;-18
2022/10/10 02:45:22;;;;;;;2.00;1.20;;;;;;;5.73;86.02;99909.85;101884;1304;62699;-17
2022/10/10 02:47:49;;;;;;;3.50;1.80;;;;;;;5.59;86.55;99908.44;102052;1301;76590;-18
2022/10/10 02:50:16;;;;;;;3.30;1.30;;;;;;;5.37;87.38;99905.84;102005;1301;75429;-17
2022/10/10 02:52:44;;;;;;;2.40;1.10;;;;;;;5.17;88.43;99909.13;102027;1301;75388;-17
2022/10/10 02:55:11;;;;;;;2.80;1.20;;;;;;;5.46;87.86;99912.13;102054;1301;61854;-17
2022/10/10 02:57:38;;;;;;;4.90;1.20;;;;;;;5.82;86.11;99913.92;101915;1294;61507;-17
2022/10/10 03:00:05;;;;;;;2.90;1.30;;;;;;;5.80;85.67;99915.02;102072;1294;74194;-17
2022/10/10 03:02:33;;;;;;;1.60;1.40;;;;;;;5.71;85.38;99919.09;101964;1294;77191;-17
2022/10/10 03:05:00;;;;;;;2.00;1.40;;;;;;;5.46;86.34;99914.38;102136;1301;74347;-17
2022/10/10 03:07:27;;;;;;;1.80;0.90;;;;;;;5.23;87.30;99915.45;102133;1301;64233;-17
2022/10/10 03:09:54;;;;;;;2.40;1.50;;;;;;;5.59;86.56;99919.13;102027;1294;61528;-17
2022/10/10 03:12:20;;;;;;;1.70;1.20;;;;;;;5.92;84.97;99918.77;101987;1301;75376;-17
2022/10/10 03:14:47;;;;;;;3.60;1.50;;;;;;;5.89;85.04;99922.38;101907;1296;75820;-18
2022/10/10 03:17:15;;;;;;;5.00;1.80;;;;;;;5.76;85.61;99924.69;102034;1301;73994;-17
2022/10/10 03:19:41;;;;;;;2.00;1.30;;;;;;;5.56;86.12;99925.47;101913;1297;61804;-17
2022/10/10 03:22:08;;;;;;;2.60;2.00;;;;;;;5.32;87.21;99921.23;101867;1301;61764;-17
2022/10/10 03:24:35;;;;;;;3.30;1.40;;;;;;;5.15;88.57;99921.96;101877;1301;75934;-17
2022/10/10 03:27:02;;;;;;;2.20;1.00;;;;;;;5.64;87.88;99919.92;101941;1302;76641;-17
2022/10/10 03:29:29;;;;;;;1.60;1.40;;;;;;;6.21;85.73;99922.10;101982;1301;75248;-18
2022/10/10 03:31:57;;;;;;;1.90;1.60;;;;;;;6.26;84.81;99920.43;102093;1294;61595;-18
2022/10/10 03:34:24;;;;;;;2.10;1.30;;;;;;;6.04;84.86;99920.97;102116;1294;62855;-17
2022/10/10 03:36:51;;;;;;;2.00;1.80;;;;;;;5.69;86.46;99924.52;102098;1301;76319;-17
2022/10/10 03:39:18;;;;;;;2.50;1.50;;;;;;;5.48;87.60;99919.81;101942;1294;75660;-17
2022/10/10 03:41:45;;;;;;;4.80;1.60;;;;;;;5.39;88.37;99923.33;102111;1302;73893;-19
2022/10/10 03:44:12;;;;;;;1.50;1.10;;;;;;;5.85;87.49;99930.30;102070;1294;62049;-18
2022/10/10 03:46:39;;;;;;;1.70;1.30;;;;;;;6.28;85.42;99933.11;102064;1300;62564;-17
2022/10/10 03:49:06;;;;;;;1.20;1.00;;;;;;;6.22;84.93;99931.65;102062;1297;76348;-17
2022/10/10 03:51:33;;;;;;;1.90;1.50;;;;;;;6.04;85.21;99931.14;102081;1301;75611;-18
2022/10/10 03:54:00;;;;;;;1.70;1.30;;;;;;;5.78;86.12;99928.38;102112;1301;74202;-17
2022/10/10 03:56:27;;;;;;;1.20;1.00;;;;;;;5.52;87.51;99931.16;101899;1301;64420;-18
2022/10/10 03:58:56;;;;;;;1.20;1.00;;;;;;;5.81;87.22;99934.98;101945;1294;62793;-18
2022/10/10 04:01:23;;;;;;;1.70;1.30;;;;;;;6.06;85.97;99933.30;102044;1302;76301;-17
2022/10/10 04:03:50;;;;;;;2.60;1.70;;;;;;;6.09;85.45;99940.43;101987;1295;75718;-17
2022/10/10 04:06:18;;;;;;;2.60;1.70;;;;;;;5.92;85.76;99943.95;102006;1301;75179;-17
2022/10/10 04:08:45;;;;;;;2.10;1.40;;;;;;;5.64;86.92;99949.02;102007;1294;61934;-17
2022/10/10 04:11:12;;;;;;;1.50;1.00;;;;;;;5.46;88.04;99948.30;102128;1301;61228;-17
2022/10/10 04:13:39;;;;;;;2.00;1.30;;;;;;;5.82;87.45;99953.58;102102;1298;76745;-17
2022/10/10 04:16:06;;;;;;;1.90;1.30;;;;;;;6.27;85.36;99954.02;102078;1294;76670;-18
2022/10/10 04:18:33;;;;;;;1.40;1.20;;;;;;;6.12;85.03;99957.66;101959;1294;75201;-17
2022/10/10 04:21:02;;;;;;;2.30;1.70;;;;;;;5.90;85.87;99958.86;101900;1300;62880;-17
2022/10/10 04:23:29;;;;;;;2.20;1.40;;;;;;;5.68;86.74;99957.65;101873;1301;62905;-18
2022/10/10 04:25:56;;;;;;;2.10;1.30;;;;;;;5.34;88.49;99955.72;101851;1301;76391;-17
2022/10/10 04:28:23;;;;;;;2.10;1.30;;;;;;;5.65;88.15;99958.14;102011;1301;75800;-18
2022/10/10 04:30:50;;;;;;;1.60;1.30;;;;;;;5.94;86.46;99961.80;101941;1293;75284;-17
2022/10/10 04:33:17;;;;;;;1.10;1.00;;;;;;;5.92;86.16;99961.88;102075;1301;61847;-17
2022/10/10 04:35:47;;;;;;;1.40;1.30;;;;;;;5.68;87.31;99963.00;101960;1297;62873;-17
2022/10/10 04:38:14;;;;;;;2.40;2.10;;;;;;;5.48;88.06;99970.79;101866;1298;76375;-18
2022/10/10 04:40:41;;;;;;;2.40;1.30;;;;;;;5.17;89.94;99967.86;102051;1301;76675;-18
2022/10/10 04:43:08;;;;;;;2.00;1.20;;;;;;;5.60;89.12;99974.03;101950;1293;75247;-18
2022/10/10 04:45:35;;;;;;;1.80;1.20;;;;;;;5.98;87.20;99977.78;102098;1294;61554;-17
2022/10/10 04:48:03;;;;;;;1.60;1.20;;;;;;;6.05;86.55;99981.11;102052;1297;62772;-17
2022/10/10 04:50:30;;;;;;;1.70;1.50;;;;;;;5.79;87.07;99987.30;102059;1301;76058;-17
2022/10/10 04:52:58;;;;;;;3.30;1.70;;;;;;;5.49;88.78;99989.15;102055;1297;75711;-17
2022/10/10 04:55:25;;;;;;;1.40;1.00;;;;;;;5.44;89.39;99990.27;102104;1301;75276;-17
2022/10/10 04:57:52;;;;;;;2.00;1.40;;;;;;;5.78;88.67;99988.88;102003;1294;62790;-17
2022/10/10 05:00:19;;;;;;;2.10;1.20;;;;;;;6.21;86.84;99996.05;101952;1300;62800;-17
2022/10/10 05:02:46;;;;;;;3.40;1.60;;;;;;;6.12;85.93;99994.55;101924;1293;76352;-17
2022/10/10 05:05:13;;;;;;;2.00;1.50;;;;;;;5.70;87.26;99995.78;101954;1294;76550;-17
2022/10/10 05:07:40;;;;;;;2.60;2.00;;;;;;;5.56;88.59;100000.41;101887;1297;74598;-17
2022/10/10 05:10:08;;;;;;;1.50;1.00;;;;;;;5.53;89.22;100002.25;101986;1301;64413;-17
2022/10/10 05:12:35;;;;;;;2.40;1.50;;;;;;;6.04;87.61;100002.90;102005;1300;61177;-17
2022/10/10 05:15:02;;;;;;;2.10;1.40;;;;;;;6.38;85.52;100004.86;102100;1301;75203;-17
2022/10/10 05:17:29;;;;;;;1.40;1.30;;;;;;;6.30;85.48;100003.38;102072;1302;75684;-17
2022/10/10 05:19:56;;;;;;;1.70;1.30;;;;;;;6.35;85.92;100006.39;102083;1293;75035;-17
2022/10/10 05:22:23;;;;;;;2.10;1.50;;;;;;;6.07;86.21;100008.23;101886;1296;62763;-18
2022/10/10 05:24:50;;;;;;;1.30;1.00;;;;;;;5.84;86.95;100000.33;101952;1294;61624;-17
2022/10/10 05:27:17;;;;;;;3.20;1.50;;;;;;;6.05;86.74;100003.86;101983;1298;76046;-17
2022/10/10 05:29:44;;;;;;;1.80;1.40;;;;;;;6.28;85.45;100005.34;101970;1294;77024;-17
2022/10/10 05:32:11;;;;;;;1.60;1.10;;;;;;;6.34;85.45;100008.02;101896;1301;74244;-18
2022/10/10 05:34:38;;;;;;;2.20;1.30;;;;;;;6.26;85.82;100009.77;101995;1301;62667;-18
2022/10/10 05:37:05;;;;;;;3.20;1.60;;;;;;;6.00;86.55;100006.50;102044;1300;61599;-17
2022/10/10 05:39:32;;;;;;;2.70;1.20;;;;;;;5.79;88.18;100011.20;102007;1301;76233;-17
2022/10/10 05:41:59;;;;;;;1.70;1.40;;;;;;;6.28;87.22;100016.04;102054;1301;75386;-17
2022/10/10 05:44:26;;;;;;;2.00;1.50;;;;;;;6.69;85.06;100014.25;101972;1301;74586;-17
2022/10/10 05:46:53;;;;;;;2.00;1.50;;;;;;;6.70;84.44;100015.39;101904;1294;61989;-18
2022/10/10 05:49:20;;;;;;;4.70;1.70;;;;;;;6.51;85.11;100016.32;101982;1297;61166;-18
2022/10/10 05:51:48;;;;;;;1.80;1.60;;;;;;;6.37;85.73;100021.14;102100;1295;76260;-17
2022/10/10 05:54:15;;;;;;;3.40;0.90;;;;;;;6.28;86.67;100018.80;102061;1301;76468;-17
2022/10/10 05:56:42;;;;;;;1.20;1.10;;;;;;;6.68;85.81;100027.39;102050;1301;75403;-17
2022/10/10 05:59:09;;;;;;;1.60;1.50;;;;;;;6.97;83.51;100023.38;101211;1300;1098034;-17
2022/10/10 06:01:36;;;;;;;2.40;1.50;;;;;;;6.87;83.39;100031.13;102028;1301;62374;-17
2022/10/10 06:29:42;;;;;;;1.20;1.10;;;;;;;5.27;93.84;100045.06;99567;1325;615440;-23
2022/10/10 06:32:09;;;;;;;1.80;1.20;;;;;;;6.18;91.79;100044.45;102151;1301;61172;-23
2022/10/10 06:34:36;;;;;;;1.60;1.50;;;;;;;6.77;86.94;100046.30;102157;1306;61624;-23
2022/10/10 06:37:04;;;;;;;2.50;1.90;;;;;;;6.94;85.59;100052.85;102175;1306;73677;-23
2022/10/10 06:39:31;;;;;;;2.50;1.80;;;;;;;6.85;85.30;100055.38;102121;1308;75571;-23
2022/10/10 06:42:16;;;;;;;2.00;1.80;;;;;;;6.47;85.88;100057.27;101426;1298;1059331;-23
2022/10/10 06:44:43;;;;;;;1.20;1.10;;;;;;;6.45;87.02;100060.97;102331;1295;63474;-22
2022/10/10 06:47:11;;;;;;;2.00;1.30;;;;;;;6.94;86.12;100062.38;102373;1293;62108;-22
2022/10/10 06:49:38;;;;;;;2.00;1.60;;;;;;;7.37;83.39;100059.55;102341;1302;74074;-23
2022/10/10 06:52:05;;;;;;;2.10;1.60;;;;;;;7.24;82.68;100062.74;102252;1303;76120;-22
2022/10/10 06:54:32;;;;;;;2.40;1.60;;;;;;;6.90;83.86;100065.67;102202;1291;73998;-23
2022/10/10 06:56:59;;;;;;;2.50;1.20;;;;;;;6.86;85.07;100071.74;102226;1298;61919;-23
2022/10/10 06:59:26;;;;;;;7.00;1.90;;;;;;;6.71;85.44;100075.91;102337;1298;61990;-23
2022/10/10 07:01:54;;;;;;;2.60;1.40;;;;;;;6.67;85.64;100078.67;102294;1292;74239;-24
2022/10/10 07:04:20;;;;;;;1.50;1.40;;;;;;;7.26;83.98;100081.66;102192;1302;75982;-24
2022/10/10 07:06:47;;;;;;;6.80;1.70;;;;;;;7.62;82.41;100077.19;102327;1298;74209;-23
2022/10/10 07:09:16;;;;;;;7.80;1.60;;;;;;;7.72;81.44;100079.98;102263;1302;61792;-24
2022/10/10 07:11:44;;;;;;;2.50;1.80;;;;;;;7.64;81.52;100077.48;102182;1298;62004;-24
2022/10/10 07:14:11;;;;;;;2.60;1.60;;;;;;;7.46;81.61;100076.99;102346;1298;74037;-23
2022/10/10 07:16:41;;;;;;;2.70;1.90;;;;;;;7.24;82.49;100081.71;102273;1303;75803;-23
2022/10/10 07:19:08;;;;;;;3.70;1.80;;;;;;;7.19;83.81;100081.30;102246;1298;74245;-23
2022/10/10 07:21:36;;;;;;;1.60;1.20;;;;;;;7.78;82.56;100077.92;102365;1302;61949;-24
2022/10/10 07:24:03;;;;;;;3.10;1.40;;;;;;;8.50;79.15;100073.52;102246;1298;61730;-24
2022/10/10 07:26:35;;;;;;;3.70;1.50;;;;;;;8.50;78.18;100074.38;102196;1298;74627;-24
2022/10/10 07:29:04;;;;;;;1.80;1.50;;;;;;;8.26;78.63;100077.45;101973;1305;75945;-24
2022/10/10 07:31:32;;;;;;;2.60;1.80;;;;;;;8.18;79.21;100074.74;101920;1297;74273;-24
2022/10/10 07:33:59;;;;;;;2.50;1.70;;;;;;;8.03;79.39;100070.02;101892;1306;61478;-23
2022/10/10 07:36:26;;;;;;;2.40;1.70;;;;;;;7.88;80.16;100074.27;101994;1302;61523;-24
2022/10/10 07:38:53;;;;;;;1.10;1.00;;;;;;;7.64;81.04;100077.83;102043;1302;74805;-24
2022/10/10 07:41:21;;;;;;;1.50;1.40;;;;;;;8.07;80.86;100073.77;101961;1304;76032;-24
2022/10/10 07:43:52;;;;;;;3.90;2.20;;;;;;;8.59;79.01;100074.39;101923;1301;74247;-24
2022/10/10 07:46:19;;;;;;;6.30;3.10;;;;;;;8.71;79.09;100076.17;101900;1308;62174;-24
2022/10/10 07:48:50;;;;;;;2.50;1.60;;;;;;;8.56;77.08;100073.38;102011;1288;61759;-24
2022/10/10 07:51:17;;;;;;;6.10;2.00;;;;;;;8.51;77.51;100074.16;102072;1302;74311;-24
2022/10/10 07:53:44;;;;;;;5.40;3.00;;;;;;;8.48;77.30;100074.50;102104;1294;75616;-24
2022/10/10 07:56:12;;;;;;;3.40;2.20;;;;;;;8.40;78.48;100073.53;102110;1302;74111;-24
2022/10/10 07:58:39;;;;;;;3.50;1.70;;;;;;;8.27;79.78;100070.27;102083;1302;63407;-25
2022/10/10 08:01:08;;;;;;;7.50;1.90;;;;;;;8.66;78.31;100067.27;102095;1302;62154;-25
2022/10/10 08:03:35;;;;;;;3.40;1.90;;;;;;;9.32;76.79;100066.39;102030;1296;74660;-25
2022/10/10 08:06:04;;;;;;;2.40;1.70;;;;;;;9.48;75.39;100068.55;102167;1302;75809;-25
2022/10/10 08:08:33;;;;;;;5.40;2.20;;;;;;;9.24;74.53;100064.42;101857;1295;74221;-25
2022/10/10 08:11:05;;;;;;;3.50;2.50;;;;;;;9.13;76.50;100064.23;102095;1302;61704;-25
2022/10/10 08:13:33;;;;;;;4.10;2.40;;;;;;;9.24;76.83;100060.98;101958;1304;61875;-25
2022/10/10 08:16:00;;;;;;;5.90;3.00;;;;;;;8.98;75.80;100066.48;102001;1305;73678;-24
2022/10/10 08:18:28;;;;;;;5.20;4.00;;;;;;;8.89;77.03;100065.94;102147;1301;75630;-24
2022/10/10 08:21:07;;;;;;;3.60;2.40;;;;;;;8.77;77.68;100062.66;102227;1301;74171;-24
2022/10/10 08:23:34;;;;;;;4.70;1.70;;;;;;;9.10;75.77;100061.83;101907;1305;61953;-24
2022/10/10 08:26:02;;;;;;;2.80;1.90;;;;;;;9.47;74.35;100059.95;102211;1301;62604;-24
2022/10/10 08:28:30;;;;;;;3.30;1.70;;;;;;;9.80;72.52;100060.73;101945;1302;74616;-25
2022/10/10 08:30:58;;;;;;;3.40;1.90;;;;;;;10.03;73.40;100058.95;101998;1301;74786;-24
2022/10/10 08:33:28;;;;;;;4.80;2.60;;;;;;;10.14;73.00;100055.30;102078;1301;74268;-25
2022/10/10 08:35:55;;;;;;;3.80;2.50;;;;;;;9.90;72.87;100058.87;101886;1303;62174;-25
2022/10/10 08:38:22;;;;;;;4.10;2.40;;;;;;;9.04;74.02;100053.80;102167;1294;61703;-25
2022/10/10 08:40:51;;;;;;;2.50;2.00;;;;;;;9.53;75.10;100052.46;102152;1295;74364;-25
2022/10/10 08:43:34;;;;;;;3.30;2.20;;;;;;;9.67;73.60;100052.34;101957;1302;74899;-25
2022/10/10 08:46:17;;;;;;;4.00;2.20;;;;;;;9.58;74.50;100050.81;101884;1305;74258;-25
2022/10/10 08:48:44;;;;;;;21.70;4.20;;;;;;;9.37;75.55;100049.79;102010;1302;61855;-25
2022/10/10 08:51:18;;;;;;;6.70;3.00;;;;;;;9.35;76.00;100054.11;101967;1298;62030;-25
2022/10/10 08:53:47;;;;;;;3.90;3.00;;;;;;;9.56;75.06;100052.85;101895;1304;74577;-25
2022/10/10 08:56:17;;;;;;;4.70;3.20;;;;;;;9.65;73.30;100054.70;101966;1296;75334;-25
2022/10/10 08:58:45;;;;;;;3.00;2.50;;;;;;;9.92;71.90;100055.98;101932;1295;73253;-25
2022/10/10 09:01:15;;;;;;;3.60;2.80;;;;;;;10.31;71.28;100055.64;101921;1289;61842;-25
2022/10/10 09:03:45;;;;;;;6.40;3.40;;;;;;;10.63;70.30;100055.48;101872;1304;61910;-25
2022/10/10 09:06:37;;;;;;;3.10;2.80;;;;;;;10.83;69.53;100052.84;101882;1305;74783;-25
2022/10/10 09:09:33;;;;;;;3.90;2.10;;;;;;;11.32;66.54;100050.40;102211;1302;75835;-25
2022/10/10 09:12:13;;;;;;;3.10;2.50;;;;;;;11.55;67.54;100046.38;102001;1303;74125;-25
2022/10/10 09:15:18;;;;;;;3.90;2.60;;;;;;;11.74;67.59;100044.60;102009;1305;61944;-25
2022/10/10 09:17:59;;;;;;;3.40;2.60;;;;;;;12.09;66.42;100039.89;102172;1302;61735;-25
2022/10/10 09:20:46;;;;;;;4.60;2.30;;;;;;;12.03;66.01;100039.79;102005;1301;74602;-25
2022/10/10 10:29:51;;;;;;;3.20;0.80;;;;;;;15.64;50.81;99989.02;99949;1321;615520;-24
2022/10/10 10:32:22;;;;;;;1.60;0.80;;;;;;;15.93;47.39;99986.99;101364;1311;61321;-23
2022/10/10 10:35:02;;;;;;;1.70;0.80;;;;;;;15.90;47.46;99983.70;101427;1308;61908;-23
2022/10/10 10:37:39;;;;;;;9.30;1.60;;;;;;;15.85;47.99;99983.48;101299;1310;73841;-23
2022/10/10 10:40:18;;;;;;;2.90;1.20;;;;;;;16.02;47.13;99977.30;101294;1312;75801;-23
2022/10/10 10:42:46;;;;;;;7.20;2.90;;;;;;;16.06;46.75;99974.48;100622;1312;1231587;-23
2022/10/10 10:45:25;;;;;;;6.40;2.80;;;;;;;15.45;47.92;99978.05;101693;1294;61900;-24
2022/10/10 10:48:25;;;;;;;3.10;1.70;;;;;;;15.34;49.02;99982.31;101465;1309;61622;-23
2022/10/10 10:50:53;;;;;;;13.40;12.20;;;;;;;14.07;49.00;99977.77;101686;1309;73657;-23
2022/10/10 10:53:43;;;;;;;7.10;4.40;;;;;;;14.16;49.79;99983.54;102113;1302;74969;-23
2022/10/10 10:56:32;;;;;;;3.70;1.50;;;;;;;14.47;49.72;99981.55;102162;1302;74306;-23
2022/10/10 10:59:23;;;;;;;;;;;;;;;14.06;50.10;99978.60;102296;1300;61755;-23
2022/10/10 11:02:30;;;;;;;3.80;1.80;;;;;;;14.57;50.13;99975.77;102238;1300;61807;-23
2022/10/10 11:05:42;;;;;;;6.00;1.40;;;;;;;15.22;49.53;99970.20;102168;1298;74663;-24
2022/10/10 11:08:15;;;;;;;2.90;0.90;;;;;;;15.57;47.88;99970.73;102131;1302;74569;-23
2022/10/10 11:11:19;;;;;;;2.70;1.50;;;;;;;14.82;48.38;99969.73;102105;1296;73253;-24
2022/10/10 11:14:06;;;;;;;4.30;2.20;;;;;;;14.30;49.56;99967.77;101958;1295;62017;-24
2022/10/10 11:16:39;;;;;;;2.80;1.50;;;;;;;13.98;50.65;99966.45;102081;1305;61953;-24
2022/10/10 11:19:22;;;;;;;2.80;1.50;;;;;;;14.46;51.43;99967.10;101926;1305;74378;-23
2022/10/10 11:22:10;;;;;;;3.60;2.20;;;;;;;14.40;49.86;99966.39;101989;1302;74696;-24
2022/10/10 11:24:45;;;;;;;4.40;1.70;;;;;;;14.03;49.98;99964.33;101955;1302;74028;-24
2022/10/10 11:27:46;;;;;;;2.10;1.30;;;;;;;14.34;49.71;99957.45;102132;1302;61851;-24
2022/10/10 11:30:24;;;;;;;1.90;1.00;;;;;;;14.80;47.88;99953.83;101910;1308;61857;-24
2022/10/10 11:32:55;;;;;;;5.00;2.10;;;;;;;14.83;48.95;99948.12;101827;1306;74478;-24
2022/10/10 11:35:59;;;;;;;2.50;1.10;;;;;;;14.94;48.43;99946.86;101914;1302;74706;-24
2022/10/10 11:38:43;;;;;;;3.80;1.90;;;;;;;14.65;47.53;99949.48;101797;1308;74049;-24
2022/10/10 11:41:17;;;;;;;13.70;1.50;;;;;;;14.65;47.96;99945.29;101841;1303;61122;-24
2022/10/10 11:43:46;;;;;;;3.50;1.20;;;;;;;14.96;46.37;99941.30;101875;1301;62032;-24
2022/10/10 11:46:29;;;;;;;3.70;1.20;;;;;;;14.59;48.04;99946.67;101839;1302;74567;-24
2022/10/10 11:49:07;;;;;;;1.60;0.90;;;;;;;14.54;47.79;99943.19;101884;1303;75787;-24
2022/10/10 11:51:46;;;;;;;1.80;0.90;;;;;;;14.51;48.01;99937.55;101872;1308;73872;-24
2022/10/10 11:54:24;;;;;;;1.70;0.80;;;;;;;14.66;47.86;99939.27;102021;1303;63536;-23
2022/10/10 11:56:53;;;;;;;1.40;1.00;;;;;;;14.92;47.81;99935.48;101873;1302;61717;-24
2022/10/10 11:59:24;;;;;;;1.60;0.80;;;;;;;14.86;46.69;99934.95;101847;1304;74585;-24
2022/10/10 12:01:53;;;;;;;1.70;0.90;;;;;;;14.98;45.92;99926.78;101861;1302;75938;-24
2022/10/10 12:04:21;;;;;;;2.60;1.50;;;;;;;14.94;47.59;99932.77;102156;1299;74210;-24
2022/10/10 12:07:05;;;;;;;1.60;1.10;;;;;;;14.61;46.65;99936.17;102259;1291;61904;-24
2022/10/10 12:09:45;;;;;;;2.30;1.00;;;;;;;14.59;48.25;99936.02;102259;1301;61920;-24
2022/10/10 12:12:16;;;;;;;3.20;0.70;;;;;;;14.50;47.62;99934.48;102125;1302;74505;-24
2022/10/10 12:14:52;;;;;;;3.50;0.80;;;;;;;14.47;46.69;99927.52;102118;1302;75710;-27
2022/10/10 12:17:23;;;;;;;4.60;0.90;;;;;;;14.26;47.67;99935.59;102197;1301;74347;-26
2022/10/10 12:19:51;;;;;;;3.50;0.80;;;;;;;14.32;47.97;99933.21;101975;1298;61647;-26
2022/10/10 12:22:22;;;;;;;2.50;0.70;;;;;;;14.10;48.18;99929.58;102417;1291;61055;-26
2022/10/10 12:25:09;;;;;;;7.00;0.80;;;;;;;13.79;48.06;99928.75;102181;1299;74731;-25
2022/10/10 12:28:00;;;;;;;1.10;0.80;;;;;;;13.48;49.02;99921.98;102154;1299;75681;-24
2022/10/10 12:30:28;;;;;;;2.10;0.90;;;;;;;13.40;49.37;99921.17;102243;1301;74427;-25
2022/10/10 12:32:55;;;;;;;2.50;0.80;;;;;;;13.51;49.43;99923.96;102400;1291;61658;-25
2022/10/10 12:35:30;;;;;;;1.50;1.10;;;;;;;13.70;50.26;99919.83;102225;1299;61125;-25
2022/10/10 12:38:03;;;;;;;1.90;1.00;;;;;;;13.23;50.32;99918.80;102319;1297;74583;-25
2022/10/10 12:40:31;;;;;;;1.90;1.00;;;;;;;13.51;51.90;99913.51;102354;1302;74684;-25
2022/10/10 12:43:26;;;;;;;2.00;1.10;;;;;;;13.58;49.50;99914.73;102437;1299;74144;-25
2022/10/10 12:45:57;;;;;;;2.70;1.70;;;;;;;13.70;50.36;99911.81;102100;1299;61391;-25
2022/10/10 12:48:24;;;;;;;4.10;1.60;;;;;;;13.86;50.18;99912.49;102091;1301;61193;-25
2022/10/10 12:50:58;;;;;;;3.90;1.20;;;;;;;13.90;49.65;99908.48;102367;1299;74598;-25
2022/10/10 12:53:27;;;;;;;2.00;0.70;;;;;;;14.08;49.96;99910.48;102035;1299;75654;-25
2022/10/10 12:55:59;;;;;;;3.90;1.00;;;;;;;14.03;49.14;99905.69;102207;1299;74284;-25
2022/10/10 12:58:29;;;;;;;4.80;1.10;;;;;;;13.93;48.62;99908.23;102019;1297;61841;-25
2022/10/10 13:00:58;;;;;;;2.00;0.80;;;;;;;13.94;48.62;99907.63;102096;1297;61866;-25
2022/10/10 13:03:50;;;;;;;1.90;0.80;;;;;;;13.95;49.00;99910.48;101998;1299;75052;-25
2022/10/10 13:06:28;;;;;;;5.90;1.20;;;;;;;14.10;47.59;99908.73;102030;1293;75678;-26
2022/10/10 13:08:55;;;;;;;2.30;1.50;;;;;;;14.28;47.50;99905.58;102289;1294;74296;-25
2022/10/10 13:11:22;;;;;;;6.70;2.90;;;;;;;14.35;45.69;99913.49;102264;1299;62057;-25
2022/10/10 13:13:53;;;;;;;5.30;1.90;;;;;;;14.32;43.92;99911.15;102302;1291;61692;-25
2022/10/10 13:24:26;;;;;;;0.90;0.60;;;;;;;14.05;45.04;99900.45;99157;1335;616154;-24
2022/10/10 13:26:53;;;;;;;1.00;0.60;;;;;;;13.99;45.92;99900.23;102280;1299;61203;-24
2022/10/10 13:29:26;;;;;;;1.80;0.70;;;;;;;13.82;46.71;99900.70;102258;1301;61145;-24
2022/10/10 13:31:56;;;;;;;3.20;0.80;;;;;;;13.64;46.18;99899.26;102196;1300;73734;-24